AIC137 VNLK-VEBI
Flight info
| Callsign | AIC137 |
|---|---|
| Flight time | N/A |
| Altitude | 29000 |
| Route | TUMLI G348 BGD Q18 GGT |
| Aircraft | TBM8/L-SDFGRWY/S |
Departure
| Time | 2026-01-06 13:41 |
|---|---|
| Airport | Tenzing-Hillary Airport (VNLK) |
Arrival
| Time | N/A |
|---|---|
| Airport | Shillong Airport (VEBI) |
| Time | Latitude | Longitude | Altitude | Speed | Heading |
|---|---|---|---|---|---|
| 2026-01-06 13:29 | 27.68724 | 86.73158 | 9424 ft | 0 kts | 59° |
| 2026-01-06 13:38 | 27.68778 | 86.73143 | 9420 ft | 0 kts | 251° |
| 2026-01-06 13:38 | 27.68795 | 86.73183 | 9425 ft | 5 kts | 243° |
| 2026-01-06 13:39 | 27.67874 | 86.71695 | 8807 ft | 177 kts | 229° |
| 2026-01-06 13:40 | 27.65611 | 86.70184 | 9487 ft | 203 kts | 187° |
| 2026-01-06 13:40 | 27.63601 | 86.71944 | 10689 ft | 193 kts | 95° |
| 2026-01-06 13:41 | 27.63631 | 86.74514 | 12632 ft | 133 kts | 92° |
| 2026-01-06 13:42 | 27.63520 | 86.75240 | 13426 ft | 212 kts | 248° |
| 2026-01-06 13:42 | 27.61025 | 86.73390 | 13494 ft | 251 kts | 178° |
| 2026-01-06 13:43 | 27.58535 | 86.77871 | 14763 ft | 219 kts | 85° |
| 2026-01-06 13:43 | 27.58730 | 86.80987 | 16255 ft | 195 kts | 83° |
| 2026-01-06 13:44 | 27.58820 | 86.82520 | 16703 ft | 195 kts | 85° |
| 2026-01-06 13:44 | 27.58471 | 86.85078 | 17516 ft | 201 kts | 113° |
| 2026-01-06 13:44 | 27.57023 | 86.87748 | 18028 ft | 200 kts | 133° |
| 2026-01-06 13:45 | 27.55245 | 86.90155 | 18782 ft | 199 kts | 136° |
| 2026-01-06 13:45 | 27.53378 | 86.92519 | 19554 ft | 204 kts | 139° |
| 2026-01-06 13:46 | 27.51464 | 86.94896 | 20300 ft | 204 kts | 143° |
| 2026-01-06 13:46 | 27.49537 | 86.97315 | 20793 ft | 213 kts | 142° |
| 2026-01-06 13:47 | 27.47539 | 86.99809 | 21233 ft | 216 kts | 141° |
| 2026-01-06 13:47 | 27.45531 | 87.02335 | 21850 ft | 217 kts | 147° |
| 2026-01-06 13:48 | 27.43461 | 87.04854 | 22410 ft | 224 kts | 149° |
| 2026-01-06 13:48 | 27.41363 | 87.07493 | 23118 ft | 227 kts | 150° |
| 2026-01-06 13:49 | 27.39241 | 87.10147 | 23715 ft | 233 kts | 150° |
| 2026-01-06 13:49 | 27.37052 | 87.12884 | 24184 ft | 234 kts | 150° |
| 2026-01-06 13:50 | 27.35953 | 87.14231 | 24405 ft | 233 kts | 152° |
| 2026-01-06 13:50 | 27.32678 | 87.18331 | 25103 ft | 234 kts | 153° |
| 2026-01-06 13:52 | 27.25139 | 87.31440 | 27162 ft | 255 kts | 142° |
| 2026-01-06 13:55 | 27.16280 | 87.47333 | 28179 ft | 304 kts | 140° |
| 2026-01-06 13:56 | 27.07865 | 87.62670 | 28184 ft | 352 kts | 132° |
| 2026-01-06 13:59 | 27.00309 | 87.87847 | 28094 ft | 385 kts | 118° |
| 2026-01-06 14:01 | 26.93484 | 88.10490 | 28171 ft | 387 kts | 119° |
| 2026-01-06 14:03 | 26.86638 | 88.33153 | 28079 ft | 378 kts | 120° |
| 2026-01-06 14:05 | 26.79835 | 88.55574 | 28153 ft | 385 kts | 118° |
| 2026-01-06 14:07 | 26.72872 | 88.78333 | 28145 ft | 388 kts | 118° |
| 2026-01-06 14:08 | 26.66731 | 88.98289 | 28139 ft | 388 kts | 118° |
| 2026-01-06 14:11 | 26.58794 | 89.23913 | 28134 ft | 388 kts | 118° |
| 2026-01-06 14:13 | 26.51726 | 89.46572 | 28130 ft | 386 kts | 118° |
| 2026-01-06 14:15 | 26.44633 | 89.69176 | 28129 ft | 386 kts | 118° |
| 2026-01-06 14:17 | 26.37552 | 89.91552 | 28123 ft | 374 kts | 118° |
| 2026-01-06 14:19 | 26.31010 | 90.12092 | 28015 ft | 313 kts | 110° |
| 2026-01-06 14:21 | 26.25991 | 90.27897 | 28112 ft | 327 kts | 121° |
| 2026-01-06 14:23 | 26.18616 | 90.50920 | 28116 ft | 367 kts | 118° |
| 2026-01-06 14:25 | 26.12879 | 90.70018 | 28103 ft | 351 kts | 118° |
| 2026-01-06 14:27 | 26.08792 | 90.85819 | 24872 ft | 291 kts | 110° |
| 2026-01-06 14:27 | 26.08791 | 90.90683 | 23639 ft | 323 kts | 83° |
| 2026-01-06 14:28 | 26.09791 | 90.95556 | 22545 ft | 316 kts | 71° |
| 2026-01-06 14:28 | 26.10278 | 90.97902 | 22150 ft | 308 kts | 79° |
| 2026-01-06 14:29 | 26.11239 | 91.02455 | 21249 ft | 299 kts | 83° |
| 2026-01-06 14:29 | 26.11443 | 91.09332 | 18921 ft | 315 kts | 101° |
| 2026-01-06 14:30 | 26.11177 | 91.11792 | 18239 ft | 312 kts | 99° |
| 2026-01-06 14:30 | 26.10616 | 91.16594 | 16346 ft | 309 kts | 100° |
| 2026-01-06 14:31 | 26.09689 | 91.22763 | 15600 ft | 250 kts | 99° |
| 2026-01-06 14:31 | 26.08917 | 91.26524 | 14473 ft | 252 kts | 106° |
| 2026-01-06 14:32 | 26.08108 | 91.30099 | 13898 ft | 228 kts | 108° |
| 2026-01-06 14:32 | 26.07671 | 91.31816 | 13265 ft | 234 kts | 105° |
| 2026-01-06 14:32 | 26.06723 | 91.34544 | 12694 ft | 211 kts | 120° |
| 2026-01-06 14:33 | 26.05236 | 91.37841 | 11846 ft | 201 kts | 116° |
| 2026-01-06 14:34 | 26.04110 | 91.40614 | 11043 ft | 200 kts | 115° |
| 2026-01-06 14:34 | 26.03169 | 91.43531 | 10196 ft | 197 kts | 108° |
| 2026-01-06 14:35 | 26.02823 | 91.47466 | 9108 ft | 189 kts | 89° |
| 2026-01-06 14:35 | 26.02797 | 91.50313 | 8323 ft | 184 kts | 92° |
| 2026-01-06 14:36 | 26.02771 | 91.53122 | 7574 ft | 178 kts | 83° |
| 2026-01-06 14:36 | 26.03006 | 91.54433 | 7263 ft | 174 kts | 75° |
| 2026-01-06 14:36 | 26.05198 | 91.56179 | 4967 ft | 233 kts | 21° |
| 2026-01-06 14:37 | 26.07937 | 91.57191 | 2388 ft | 198 kts | 26° |
| 2026-01-06 14:37 | 26.10306 | 91.58367 | 171 ft | 115 kts | 18° |
| 2026-01-06 14:38 | 26.11105 | 91.58726 | 163 ft | 0 kts | 21° |
| 2026-01-06 14:39 | 26.08277 | 91.57371 | 1877 ft | 211 kts | 25° |
| 2026-01-06 14:40 | 26.10312 | 91.58369 | 171 ft | 118 kts | 18° |
| 2026-01-06 14:40 | 26.10814 | 91.58595 | 164 ft | 69 kts | 21° |
| 2026-01-06 14:40 | 26.08237 | 91.57350 | 1931 ft | 215 kts | 26° |
| 2026-01-06 14:41 | 26.10265 | 91.58347 | 171 ft | 124 kts | 18° |
| 2026-01-06 14:41 | 26.11087 | 91.58719 | 163 ft | 26 kts | 23° |
| 2026-01-06 14:42 | 26.09226 | 91.57864 | 378 ft | 214 kts | 21° |
| 2026-01-06 14:43 | 26.11074 | 91.58712 | 163 ft | 33 kts | 23° |
| 2026-01-06 14:43 | 26.09131 | 91.57817 | 457 ft | 216 kts | 19° |
| 2026-01-06 14:44 | 26.10764 | 91.58574 | 163 ft | 73 kts | 19° |
| 2026-01-06 14:44 | 26.11081 | 91.58716 | 163 ft | 29 kts | 25° |
| 2026-01-06 14:44 | 26.09296 | 91.57898 | 324 ft | 215 kts | 20° |
| 2026-01-06 14:45 | 26.10813 | 91.58594 | 164 ft | 69 kts | 21° |
| 2026-01-06 14:45 | 26.08367 | 91.57416 | 1754 ft | 202 kts | 25° |
| 2026-01-06 14:46 | 26.10383 | 91.58403 | 169 ft | 111 kts | 17° |
| 2026-01-06 14:47 | 26.08320 | 91.57393 | 1822 ft | 207 kts | 25° |
| 2026-01-06 14:47 | 26.10321 | 91.58374 | 170 ft | 117 kts | 18° |
| 2026-01-06 14:47 | 26.10818 | 91.58597 | 164 ft | 69 kts | 21° |
| 2026-01-06 14:48 | 26.08337 | 91.57401 | 1799 ft | 206 kts | 25° |
| 2026-01-06 14:48 | 26.10265 | 91.58340 | 165 ft | 77 kts | 27° |